Time;durP1;ratioP1;P1;durP2;ratioP2;P2;SDS_P1;SDS_P2;PMS_P1;PMS_P2;Temp;Humidity;BMP_temperature;BMP_pressure;BME280_temperature;BME280_humidity;BME280_pressure;Samples;Min_cycle;Max_cycle;Signal;HPM_P1;HPM_P2
2021/03/14 00:01:04;;;;;;;44.90;17.98;;;;;;;1.28;94.55;100826.37;1706095;84;21481;-43
2021/03/14 00:03:33;;;;;;;49.35;16.52;;;;;;;1.27;94.53;100828.08;1706261;83;21597;-41
2021/03/14 00:06:01;;;;;;;29.40;15.98;;;;;;;1.26;94.46;100830.57;1706207;84;21159;-42
2021/03/14 00:08:30;;;;;;;24.63;16.17;;;;;;;1.25;94.42;100836.06;1706206;84;21035;-43
2021/03/14 00:11:05;;;;;;;42.85;17.82;;;;;;;1.21;94.42;100839.80;1706240;84;21509;-43
2021/03/14 00:13:35;;;;;;;;;;;;;;;1.21;94.50;100838.09;1708724;84;21576;-40
2021/03/14 00:16:04;;;;;;;28.25;16.42;;;;;;;1.20;94.53;100834.25;1706167;84;20156;-42
2021/03/14 00:18:36;;;;;;;48.15;18.02;;;;;;;1.18;94.58;100830.36;1706136;82;21379;-42
2021/03/14 00:21:04;;;;;;;43.17;18.65;;;;;;;1.15;94.61;100829.02;1706094;84;21019;-42
2021/03/14 00:23:32;;;;;;;61.33;17.80;;;;;;;1.16;94.63;100832.45;1706168;83;20967;-43
2021/03/14 00:26:00;;;;;;;38.92;19.07;;;;;;;1.18;94.69;100833.34;1706188;84;21050;-41
2021/03/14 00:28:27;;;;;;;56.00;19.62;;;;;;;1.19;94.67;100835.91;1706206;84;21584;-42
2021/03/14 00:30:56;;;;;;;56.20;19.32;;;;;;;1.21;94.66;100838.52;1706086;83;21206;-42
2021/03/14 00:33:23;;;;;;;45.48;17.52;;;;;;;1.21;94.69;100846.17;1706056;84;21062;-43
2021/03/14 00:35:51;;;;;;;59.38;19.85;;;;;;;1.22;94.66;100845.34;1706138;84;20955;-42
2021/03/14 00:38:19;;;;;;;63.92;21.42;;;;;;;1.23;94.69;100841.97;1706075;84;21005;-43
2021/03/14 00:40:47;;;;;;;61.95;19.57;;;;;;;1.22;94.72;100844.08;1706166;84;21137;-42
2021/03/14 00:43:14;;;;;;;53.05;17.12;;;;;;;1.24;94.71;100846.25;1706101;82;21384;-42
2021/03/14 00:45:42;;;;;;;70.00;20.27;;;;;;;1.23;94.64;100835.59;1706108;84;20979;-42
2021/03/14 00:48:13;;;;;;;73.37;19.90;;;;;;;1.24;94.61;100839.88;1703618;82;21011;-42
2021/03/14 00:50:43;;;;;;;67.75;19.75;;;;;;;1.25;94.62;100837.77;1706027;84;21082;-43
2021/03/14 00:53:12;;;;;;;32.33;15.38;;;;;;;1.25;94.65;100836.06;1706058;83;21015;-42
2021/03/14 00:55:42;;;;;;;39.73;16.45;;;;;;;1.27;94.64;100839.95;1706126;83;21447;-42
2021/03/14 00:58:10;;;;;;;28.50;18.30;;;;;;;1.26;94.61;100841.66;1706137;84;21620;-43
2021/03/14 01:00:38;;;;;;;40.25;17.10;;;;;;;1.26;94.58;100840.37;1706096;84;21011;-42
2021/03/14 01:03:07;;;;;;;28.50;17.07;;;;;;;1.27;94.57;100834.84;1706065;84;21062;-42
2021/03/14 01:05:37;;;;;;;46.55;18.70;;;;;;;1.25;94.58;100830.97;1706021;83;20959;-42
2021/03/14 01:08:05;;;;;;;37.50;18.45;;;;;;;1.26;94.64;100837.83;1706122;84;21201;-43
2021/03/14 01:10:34;;;;;;;36.63;17.80;;;;;;;1.27;94.62;100832.30;1685893;84;20952;-43
2021/03/14 01:13:02;;;;;;;30.10;18.25;;;;;;;1.28;94.67;100830.20;1706049;83;21003;-42
2021/03/14 01:15:31;;;;;;;29.37;17.10;;;;;;;1.27;94.74;100824.25;1706081;84;21132;-42
2021/03/14 01:18:00;;;;;;;28.02;17.20;;;;;;;1.29;94.71;100821.72;1706285;84;21102;-43
2021/03/14 01:20:28;;;;;;;26.02;17.20;;;;;;;1.30;94.70;100829.82;1706292;84;21209;-42
2021/03/14 01:22:56;;;;;;;27.80;17.55;;;;;;;1.29;94.73;100821.72;1706240;84;21015;-43
2021/03/14 01:25:23;;;;;;;28.23;17.45;;;;;;;1.30;94.74;100825.99;1706256;84;20975;-42
2021/03/14 01:27:52;;;;;;;29.27;17.40;;;;;;;1.30;94.71;100819.61;1706211;84;21015;-42
2021/03/14 01:30:21;;;;;;;30.80;18.67;;;;;;;1.31;94.67;100826.45;1706354;83;21011;-41
2021/03/14 01:32:49;;;;;;;32.78;17.52;;;;;;;1.31;94.69;100814.96;1719842;83;22169;-42
2021/03/14 01:35:18;;;;;;;30.48;18.05;;;;;;;1.31;94.67;100816.67;1719804;83;21094;-43
2021/03/14 01:37:46;;;;;;;28.87;18.20;;;;;;;1.32;94.67;100812.86;1719769;83;21132;-43
2021/03/14 01:40:17;;;;;;;28.20;17.35;;;;;;;1.32;94.58;100813.29;1719719;83;21035;-42
2021/03/14 01:42:45;;;;;;;30.50;17.55;;;;;;;1.32;94.58;100816.69;1719784;82;20959;-43
2021/03/14 01:45:14;;;;;;;35.03;18.87;;;;;;;1.33;94.58;100816.30;1719771;82;21219;-42
2021/03/14 01:47:45;;;;;;;33.40;17.00;;;;;;;1.34;94.55;100825.67;1719711;83;20987;-42
2021/03/14 01:50:22;;;;;;;30.23;17.27;;;;;;;1.33;94.53;100821.39;1719755;83;21010;-43
2021/03/14 01:52:51;;;;;;;36.95;18.45;;;;;;;1.33;94.55;100826.06;1719821;83;21087;-43
2021/03/14 01:55:21;;;;;;;25.65;15.85;;;;;;;1.32;94.54;100816.69;1719718;83;21093;-43
2021/03/14 01:57:49;;;;;;;31.42;18.42;;;;;;;1.33;94.57;100816.30;1719837;83;21371;-42
2021/03/14 02:00:24;;;;;;;35.00;18.40;;;;;;;1.34;94.56;100823.12;1719762;83;20971;-43
2021/03/14 02:02:51;;;;;;;40.95;18.40;;;;;;;1.33;94.51;100813.31;1719240;83;21035;-42
2021/03/14 02:05:20;;;;;;;47.55;19.65;;;;;;;1.32;94.48;100806.48;1719724;83;21066;-43
2021/03/14 02:07:50;;;;;;;51.20;18.52;;;;;;;1.34;94.50;100807.38;1719781;83;21015;-42
2021/03/14 02:10:25;;;;;;;67.75;18.98;;;;;;;1.33;94.43;100804.81;1719825;83;22287;-42
2021/03/14 02:13:13;;;;;;;104.20;21.07;;;;;;;1.30;94.44;100810.69;1719814;83;21065;-43
2021/03/14 02:15:52;;;;;;;114.62;21.62;;;;;;;1.29;94.45;100809.84;1719760;83;21014;-41
2021/03/14 02:18:20;;;;;;;97.97;19.87;;;;;;;1.31;94.47;100807.73;1719686;83;21094;-43
2021/03/14 02:20:47;;;;;;;106.58;20.30;;;;;;;1.32;94.53;100810.74;1670582;83;20947;-43
2021/03/14 02:23:55;;;;;;;116.77;20.90;;;;;;;1.32;94.54;100811.59;1719697;83;21369;-43
2021/03/14 02:26:34;;;;;;;96.53;19.27;;;;;;;1.34;94.52;100815.47;1719642;83;20967;-42
2021/03/14 02:29:02;;;;;;;94.97;19.42;;;;;;;1.36;94.57;100814.66;1719746;83;20959;-43
2021/03/14 02:31:30;;;;;;;135.60;21.15;;;;;;;1.39;94.63;100812.22;1714770;83;21078;-42
2021/03/14 02:34:05;;;;;;;125.02;16.73;;;;;;;1.41;94.62;100809.69;1706276;84;21039;-42
2021/03/14 02:36:36;;;;;;;100.45;14.10;;;;;;;1.42;94.62;100816.12;1706317;84;21209;-43
2021/03/14 02:39:06;;;;;;;185.37;20.65;;;;;;;1.43;94.62;100820.39;1706176;84;21153;-42
2021/03/14 02:41:34;;;;;;;128.55;17.92;;;;;;;1.46;94.67;100813.64;1706150;83;21063;-41
2021/03/14 02:44:02;;;;;;;84.50;15.58;;;;;;;1.49;94.61;100818.81;1706146;82;21050;-42
2021/03/14 02:46:29;;;;;;;73.47;15.80;;;;;;;1.52;94.63;100821.03;1706253;84;21631;-41
2021/03/14 02:48:58;;;;;;;41.45;13.90;;;;;;;1.57;94.67;100819.84;1706230;84;21361;-41
2021/03/14 02:51:26;;;;;;;21.52;13.45;;;;;;;1.58;94.60;100819.91;1706087;84;20960;-42
2021/03/14 02:53:54;;;;;;;22.48;13.72;;;;;;;1.60;94.57;100813.97;1706278;83;21474;-43
2021/03/14 02:56:22;;;;;;;26.25;14.95;;;;;;;1.59;94.45;100815.64;1706226;82;21469;-42
2021/03/14 02:58:50;;;;;;;25.75;15.23;;;;;;;1.57;94.33;100804.54;1706158;84;21070;-43
2021/03/14 03:01:18;;;;;;;29.65;16.52;;;;;;;1.54;94.21;100801.92;1706148;84;21366;-43
2021/03/14 03:03:46;;;;;;;28.38;15.78;;;;;;;1.49;94.13;100801.80;1706131;84;21632;-42
2021/03/14 03:06:14;;;;;;;26.77;15.85;;;;;;;1.45;94.08;100792.77;1706175;84;21043;-41
2021/03/14 03:08:41;;;;;;;28.12;16.70;;;;;;;1.40;94.11;100791.38;1706197;84;21042;-41
2021/03/14 03:11:13;;;;;;;24.80;16.42;;;;;;;1.38;94.13;100793.88;1641763;84;21039;-42
2021/03/14 03:13:41;;;;;;;25.72;16.40;;;;;;;1.36;94.15;100799.35;1706174;84;21451;-42
2021/03/14 03:16:15;;;;;;;30.05;18.00;;;;;;;1.35;94.19;100792.95;1706111;84;21047;-42
2021/03/14 03:18:43;;;;;;;29.80;16.80;;;;;;;1.32;94.23;100801.38;1706088;83;20936;-42
2021/03/14 03:21:11;;;;;;;30.70;18.55;;;;;;;1.32;94.23;100795.01;1650228;84;21615;-42
2021/03/14 03:23:38;;;;;;;27.93;18.50;;;;;;;1.33;94.28;100790.36;1706217;84;21031;-41
2021/03/14 03:26:06;;;;;;;27.20;19.12;;;;;;;1.31;94.27;100790.73;1650289;84;21227;-40
2021/03/14 03:28:34;;;;;;;31.60;18.82;;;;;;;1.29;94.24;100797.48;1706113;84;20943;-41
2021/03/14 03:31:02;;;;;;;48.87;18.77;;;;;;;1.30;94.28;100803.03;1706512;83;21035;-41
2021/03/14 03:33:31;;;;;;;109.50;21.48;;;;;;;1.28;94.29;100805.96;1719647;83;21014;-41
2021/03/14 03:35:59;;;;;;;191.47;25.97;;;;;;;1.29;94.33;100808.56;1719702;83;20975;-40
2021/03/14 03:38:26;;;;;;;107.35;22.62;;;;;;;1.29;94.35;100808.56;1719655;83;21372;-41
2021/03/14 03:40:54;;;;;;;125.67;20.88;;;;;;;1.28;94.39;100800.86;1719646;83;20967;-42
2021/03/14 03:43:29;;;;;;;91.82;21.25;;;;;;;1.29;94.48;100803.86;1719630;82;21018;-41
2021/03/14 03:46:00;;;;;;;51.68;19.67;;;;;;;1.31;94.51;100803.48;1693170;83;21039;-41
2021/03/14 03:48:45;;;;;;;39.75;19.17;;;;;;;1.33;94.55;100796.73;1719789;83;21957;-41
2021/03/14 03:51:27;;;;;;;29.40;19.00;;;;;;;1.36;94.50;100799.78;1719649;83;21366;-41
2021/03/14 03:53:58;;;;;;;33.80;20.43;;;;;;;1.35;94.50;100797.62;1719594;83;20947;-41
2021/03/14 03:56:26;;;;;;;37.48;22.77;;;;;;;1.34;94.46;100793.36;1719651;83;20955;-42
2021/03/14 03:58:54;;;;;;;40.60;22.70;;;;;;;1.33;94.50;100786.52;1719740;83;21457;-42
2021/03/14 04:01:21;;;;;;;46.33;24.98;;;;;;;1.34;94.46;100781.03;1719661;83;20939;-42
2021/03/14 04:03:49;;;;;;;48.17;25.55;;;;;;;1.31;94.46;100780.53;1719653;83;21210;-41
2021/03/14 04:06:17;;;;;;;94.52;26.23;;;;;;;1.31;94.42;100781.80;1719574;83;21052;-43
2021/03/14 04:08:46;;;;;;;98.55;28.55;;;;;;;1.31;94.43;100779.68;1719728;83;20935;-42
2021/03/14 04:11:15;;;;;;;161.80;31.85;;;;;;;1.31;94.47;100779.68;1719660;83;21054;-42
2021/03/14 04:13:44;;;;;;;153.53;32.17;;;;;;;1.31;94.51;100779.25;1719820;83;21476;-41
2021/03/14 04:16:12;;;;;;;137.40;34.13;;;;;;;1.32;94.59;100778.85;1719701;83;21488;-43
2021/03/14 04:18:41;;;;;;;173.10;34.95;;;;;;;1.32;94.62;100775.87;1719577;83;21050;-43
2021/03/14 04:21:15;;;;;;;138.28;34.95;;;;;;;1.32;94.61;100777.15;1719640;83;21042;-43
2021/03/14 04:23:46;;;;;;;109.10;34.15;;;;;;;1.33;94.61;100768.67;1719723;83;21612;-42
2021/03/14 04:26:16;;;;;;;194.95;41.45;;;;;;;1.34;94.67;100778.48;1719676;83;21445;-41
2021/03/14 04:28:44;;;;;;;138.47;40.30;;;;;;;1.34;94.73;100771.67;1719682;83;21509;-42
2021/03/14 04:31:12;;;;;;;194.55;41.65;;;;;;;1.36;94.73;100770.02;1719581;83;21038;-41
2021/03/14 04:33:41;;;;;;;138.77;41.25;;;;;;;1.37;94.77;100777.27;1699897;83;21428;-43
2021/03/14 04:36:11;;;;;;;128.18;40.98;;;;;;;1.37;94.79;100773.02;1727074;83;21029;-41
2021/03/14 04:38:42;;;;;;;144.37;41.15;;;;;;;1.39;94.80;100771.39;1727177;83;20986;-42
2021/03/14 04:41:10;;;;;;;102.55;37.95;;;;;;;1.41;94.74;100777.39;1700699;83;21370;-43
2021/03/14 04:43:38;;;;;;;98.97;40.20;;;;;;;1.40;94.71;100775.67;1727091;81;21061;-41
2021/03/14 04:46:05;;;;;;;136.70;38.17;;;;;;;1.40;94.72;100776.95;1727157;83;20967;-42
2021/03/14 04:48:33;;;;;;;76.17;33.75;;;;;;;1.40;94.70;100774.80;1727095;83;21026;-43
2021/03/14 04:51:01;;;;;;;83.62;35.63;;;;;;;1.41;94.68;100777.39;1727133;83;21050;-43
2021/03/14 04:53:28;;;;;;;66.50;31.93;;;;;;;1.41;94.69;100779.06;1727308;83;21378;-42
2021/03/14 04:55:56;;;;;;;62.90;32.00;;;;;;;1.42;94.65;100780.39;1727219;81;20962;-43
2021/03/14 04:58:24;;;;;;;62.40;31.42;;;;;;;1.42;94.63;100778.23;1727231;81;20939;-41
2021/03/14 05:00:52;;;;;;;73.33;30.08;;;;;;;1.39;94.64;100776.50;1700797;83;21025;-42
2021/03/14 05:03:22;;;;;;;83.25;34.08;;;;;;;1.41;94.68;100777.80;1727275;83;21082;-44
2021/03/14 05:05:51;;;;;;;105.55;32.73;;;;;;;1.40;94.70;100783.33;1727386;83;22292;-43
2021/03/14 05:08:23;;;;;;;85.32;29.48;;;;;;;1.41;94.68;100778.67;1727331;83;21540;-41
2021/03/14 05:10:52;;;;;;;82.42;29.72;;;;;;;1.45;94.73;100780.02;1727273;83;20999;-42
2021/03/14 05:13:20;;;;;;;65.60;26.75;;;;;;;1.47;94.79;100777.09;1700557;83;21101;-43
2021/03/14 05:15:51;;;;;;;80.00;28.23;;;;;;;1.50;94.82;100780.98;1727253;83;21018;-42
2021/03/14 05:18:20;;;;;;;74.12;28.98;;;;;;;1.54;94.81;100778.55;1727318;83;22224;-42
2021/03/14 05:20:47;;;;;;;102.32;30.55;;;;;;;1.59;94.77;100779.92;1727241;82;21022;-43
2021/03/14 05:23:16;;;;;;;93.42;29.42;;;;;;;1.62;94.75;100786.36;1727253;83;20958;-43
2021/03/14 05:25:44;;;;;;;84.00;29.20;;;;;;;1.64;94.79;100783.47;1727250;83;21014;-45
2021/03/14 05:28:14;;;;;;;83.70;29.10;;;;;;;1.70;94.80;100783.59;1727275;82;20951;-40
2021/03/14 05:30:42;;;;;;;66.62;29.25;;;;;;;1.76;94.77;100783.28;1727295;83;21213;-41
2021/03/14 05:33:11;;;;;;;56.63;26.77;;;;;;;1.79;94.68;100777.84;1673443;83;21041;-42
2021/03/14 05:35:38;;;;;;;60.95;29.23;;;;;;;1.82;94.63;100775.77;1719812;83;21553;-43
2021/03/14 05:38:06;;;;;;;63.95;28.70;;;;;;;1.84;94.58;100772.42;1719722;83;20979;-42
2021/03/14 05:40:33;;;;;;;58.98;26.07;;;;;;;1.85;94.50;100770.72;1719817;83;21034;-41
2021/03/14 05:43:03;;;;;;;61.00;29.65;;;;;;;1.88;94.47;100767.38;1719719;82;21389;-42
2021/03/14 05:45:32;;;;;;;63.52;30.00;;;;;;;1.92;94.43;100774.28;1719676;83;21026;-43
2021/03/14 05:47:59;;;;;;;58.90;30.27;;;;;;;1.94;94.45;100772.22;1719736;83;21038;-43
2021/03/14 05:50:29;;;;;;;64.45;33.38;;;;;;;1.99;94.35;100783.80;1719745;83;21070;-46
2021/03/14 05:52:56;;;;;;;67.75;34.90;;;;;;;1.99;94.19;100777.41;1719771;83;21066;-42
2021/03/14 05:55:24;;;;;;;69.58;33.02;;;;;;;2.00;94.14;100777.45;1719791;83;21456;-42
2021/03/14 05:57:54;;;;;;;75.15;38.25;;;;;;;2.04;94.14;100780.95;1719669;83;21002;-42
2021/03/14 06:00:28;;;;;;;73.33;37.70;;;;;;;2.04;94.04;100791.56;1719764;83;21090;-43
2021/03/14 06:03:00;;;;;;;72.12;38.63;;;;;;;2.07;93.98;100782.69;1719819;83;21572;-43
2021/03/14 06:05:30;;;;;;;75.62;36.88;;;;;;;2.06;93.81;100797.17;1719827;83;21022;-45
2021/03/14 06:07:58;;;;;;;72.60;36.60;;;;;;;2.08;93.80;100798.45;1719773;83;21376;-43
2021/03/14 06:10:28;;;;;;;75.05;35.05;;;;;;;2.10;93.77;100804.46;1719631;82;21631;-42
2021/03/14 06:12:55;;;;;;;70.20;35.40;;;;;;;2.11;93.65;100804.91;1719681;83;21646;-42
2021/03/14 06:15:23;;;;;;;64.03;31.87;;;;;;;2.12;93.59;100805.36;1719702;83;21022;-42
2021/03/14 06:17:51;;;;;;;67.27;32.45;;;;;;;2.13;93.48;100805.41;1719742;83;21039;-44
2021/03/14 06:20:44;;;;;;;67.95;32.33;;;;;;;2.15;93.46;100801.19;1719768;83;21459;-42
2021/03/14 06:23:14;;;;;;;59.83;28.35;;;;;;;2.16;93.42;100807.17;1719609;83;20990;-41
2021/03/14 06:25:43;;;;;;;55.35;28.12;;;;;;;2.21;93.36;100803.42;1719813;83;21604;-42
2021/03/14 06:28:12;;;;;;;53.50;26.42;;;;;;;2.24;93.20;100808.19;1719712;83;21014;-43
2021/03/14 06:30:40;;;;;;;45.50;24.23;;;;;;;2.27;93.20;100820.16;1719822;83;21014;-42
2021/03/14 06:33:16;;;;;;;41.92;22.50;;;;;;;2.28;93.13;100817.64;1713420;83;22266;-43
2021/03/14 06:35:49;;;;;;;30.57;17.80;;;;;;;2.32;92.99;100820.27;1706369;83;21608;-41
2021/03/14 06:38:30;;;;;;;41.65;22.02;;;;;;;2.36;92.90;100827.16;1706163;84;21027;-42
2021/03/14 06:41:14;;;;;;;31.55;18.87;;;;;;;2.41;92.86;100820.05;1706214;84;21348;-43
2021/03/14 06:43:52;;;;;;;35.75;15.98;;;;;;;2.40;92.59;100822.16;1706289;82;20984;-43
2021/03/14 06:46:26;;;;;;;29.35;14.98;;;;;;;2.43;92.44;100817.09;1706081;83;21445;-41
2021/03/14 06:49:11;;;;;;;33.00;15.83;;;;;;;2.49;92.31;100829.16;1706113;84;21070;-45
2021/03/14 06:51:44;;;;;;;25.30;15.53;;;;;;;2.56;92.26;100831.42;1706263;84;21547;-41
2021/03/14 06:54:25;;;;;;;28.32;16.05;;;;;;;2.63;92.12;100826.87;1706109;84;21141;-42
2021/03/14 06:57:18;;;;;;;28.12;14.30;;;;;;;2.67;91.97;100834.20;1706218;84;21035;-41
2021/03/14 06:59:51;;;;;;;21.40;13.08;;;;;;;2.70;91.77;100828.72;1706159;84;22137;-42
2021/03/14 07:02:30;;;;;;;27.95;14.87;;;;;;;2.72;91.67;100832.16;1705979;83;21047;-42
2021/03/14 07:05:04;;;;;;;40.60;14.90;;;;;;;2.73;91.48;100826.22;1706162;83;21051;-42
2021/03/14 07:07:39;;;;;;;61.10;14.03;;;;;;;2.72;91.25;100831.32;1706136;83;21031;-42
2021/03/14 07:10:12;;;;;;;63.13;14.58;;;;;;;2.74;91.20;100833.48;1706079;83;20951;-41
2021/03/14 07:12:45;;;;;;;33.50;13.90;;;;;;;2.74;90.99;100821.98;1706137;84;21160;-42
2021/03/14 07:15:23;;;;;;;35.10;13.40;;;;;;;2.76;90.96;100825.43;1706074;84;21039;-43
2021/03/14 07:17:55;;;;;;;31.05;14.10;;;;;;;2.81;90.82;100819.14;1706105;84;21042;-41
2021/03/14 07:20:29;;;;;;;27.62;12.43;;;;;;;2.83;90.57;100818.31;1706193;82;21501;-42
2021/03/14 07:23:08;;;;;;;24.90;13.68;;;;;;;2.84;90.42;100820.47;1706154;82;21065;-42
2021/03/14 07:25:44;;;;;;;36.05;12.95;;;;;;;2.83;90.31;100820.87;1706149;83;21210;-42
2021/03/14 07:28:12;;;;;;;22.98;11.55;;;;;;;2.85;90.17;100810.25;1706040;84;21039;-43
2021/03/14 07:30:40;;;;;;;41.73;13.20;;;;;;;2.88;90.13;100814.14;1706147;82;21639;-43
2021/03/14 07:33:07;;;;;;;47.67;11.05;;;;;;;2.91;89.99;100820.17;1708582;83;21125;-43
2021/03/14 07:35:35;;;;;;;41.28;11.60;;;;;;;2.92;90.14;100817.63;1714090;83;21070;-43
2021/03/14 07:38:03;;;;;;;36.23;11.38;;;;;;;2.99;89.82;100817.34;1714038;83;21366;-43
2021/03/14 07:40:30;;;;;;;35.83;8.98;;;;;;;3.05;89.66;100817.88;1714026;82;21058;-43
2021/03/14 07:43:00;;;;;;;30.02;8.28;;;;;;;3.08;89.61;100816.65;1713987;82;21042;-42
2021/03/14 07:45:30;;;;;;;58.58;9.28;;;;;;;3.09;89.38;100817.09;1713982;83;21007;-43
2021/03/14 07:47:59;;;;;;;124.05;13.38;;;;;;;3.11;89.23;100817.98;1714090;83;21011;-42
2021/03/14 07:50:37;;;;;;;178.50;12.73;;;;;;;3.14;89.24;100816.75;1714101;83;21347;-42
2021/03/14 07:53:10;;;;;;;33.42;7.10;;;;;;;3.19;89.13;100824.52;1713933;83;21536;-42
2021/03/14 07:55:38;;;;;;;47.30;7.90;;;;;;;3.20;88.99;100826.24;1714078;82;20963;-40
2021/03/14 07:58:05;;;;;;;120.75;10.75;;;;;;;3.21;88.87;100822.84;1713949;83;20939;-41
2021/03/14 08:00:35;;;;;;;57.15;8.58;;;;;;;3.25;88.81;100823.34;1714055;83;21039;-41
2021/03/14 08:03:09;;;;;;;89.62;11.33;;;;;;;3.29;88.83;100813.59;1713992;83;21368;-40
2021/03/14 08:05:46;;;;;;;136.55;12.93;;;;;;;3.35;88.81;100811.57;1714011;83;21579;-42
2021/03/14 08:08:32;;;;;;;82.02;9.18;;;;;;;3.42;88.75;100809.14;1714038;83;21079;-41
2021/03/14 08:11:00;;;;;;;86.03;12.17;;;;;;;3.57;88.60;100805.09;1714204;83;21306;-42
2021/03/14 08:13:34;;;;;;;133.15;13.43;;;;;;;3.63;88.30;100812.87;1713985;83;21118;-41
2021/03/14 08:16:05;;;;;;;60.48;10.00;;;;;;;3.65;88.05;100813.75;1714011;83;21214;-42
2021/03/14 08:18:48;;;;;;;98.75;12.50;;;;;;;3.65;87.68;100820.16;1714040;83;21508;-42
2021/03/14 08:21:31;;;;;;;121.10;11.93;;;;;;;3.64;87.64;100817.58;1714095;83;21022;-42
2021/03/14 08:24:02;;;;;;;84.13;12.80;;;;;;;3.63;87.54;100814.14;1711686;83;21023;-42
2021/03/14 08:26:36;;;;;;;135.12;16.07;;;;;;;3.69;87.63;100815.55;1714006;83;21042;-42
2021/03/14 08:29:13;;;;;;;239.57;19.32;;;;;;;3.71;87.37;100812.99;1713974;83;21393;-42
2021/03/14 08:31:55;;;;;;;150.18;16.87;;;;;;;3.75;87.42;100813.48;1712837;83;21500;-43
2021/03/14 08:34:34;;;;;;;170.77;16.40;;;;;;;3.79;87.14;100808.88;1707178;83;21098;-41
2021/03/14 08:37:27;;;;;;;115.03;18.67;;;;;;;3.79;87.21;100799.03;1706290;84;21087;-42
2021/03/14 08:40:03;;;;;;;158.78;17.55;;;;;;;3.81;87.01;100797.35;1706179;84;21107;-42
2021/03/14 08:42:55;;;;;;;243.23;21.57;;;;;;;3.85;87.01;100805.52;1704383;82;21208;-42
2021/03/14 08:45:26;;;;;;;56.68;15.08;;;;;;;3.90;86.86;100802.59;1705115;83;21724;-42
2021/03/14 08:49:26;;;;;;;64.80;15.55;;;;;;;3.99;86.58;100800.19;1776983;79;23259;-42
2021/03/14 08:51:54;;;;;;;112.52;16.97;;;;;;;3.99;86.56;100796.75;1749407;82;20923;-41
2021/03/14 08:54:32;;;;;;;69.32;14.95;;;;;;;4.08;86.59;100793.46;1716692;82;21346;-41
2021/03/14 08:57:06;;;;;;;59.27;14.10;;;;;;;4.15;86.47;100785.01;1749342;82;21019;-42
2021/03/14 08:59:34;;;;;;;52.05;13.28;;;;;;;4.18;85.23;100781.23;1749398;82;20959;-42
2021/03/14 09:02:03;;;;;;;37.65;12.07;;;;;;;4.18;85.23;100781.23;1749496;82;21535;-42
2021/03/14 09:04:34;;;;;;;41.77;12.82;;;;;;;4.12;85.50;100779.84;1720082;82;20978;-42
2021/03/14 09:07:10;;;;;;;54.88;13.58;;;;;;;4.06;85.68;100775.93;1746832;82;21377;-43
2021/03/14 09:09:39;;;;;;;47.90;11.95;;;;;;;4.08;85.98;100775.13;1749550;81;21066;-43
2021/03/14 09:12:19;;;;;;;44.98;10.60;;;;;;;4.21;85.83;100778.70;1747784;82;20942;-42
2021/03/14 09:14:52;;;;;;;63.33;12.88;;;;;;;4.24;84.97;100765.92;1748751;82;20959;-42
2021/03/14 09:17:27;;;;;;;127.20;18.80;;;;;;;4.24;84.97;100765.92;1748731;82;21058;-43
2021/03/14 09:19:58;;;;;;;119.45;18.62;;;;;;;4.15;84.84;100781.17;1745910;82;21218;-41
2021/03/14 09:22:29;;;;;;;37.83;12.43;;;;;;;4.07;85.07;100778.93;1748901;82;21070;-43
2021/03/14 09:25:08;;;;;;;100.85;17.30;;;;;;;4.07;85.13;100780.21;1748478;82;20979;-41
2021/03/14 09:27:39;;;;;;;44.90;15.25;;;;;;;4.03;85.42;100773.77;1746918;82;21646;-42
2021/03/14 09:30:17;;;;;;;56.25;18.75;;;;;;;4.02;85.51;100766.05;1718777;82;21457;-42
2021/03/14 09:32:50;;;;;;;90.12;21.60;;;;;;;4.02;85.51;100766.05;1749385;82;21353;-43
2021/03/14 09:35:34;;;;;;;61.65;17.85;;;;;;;4.01;86.22;100764.33;1749189;82;21054;-42
2021/03/14 09:38:16;;;;;;;54.25;18.85;;;;;;;4.12;86.61;100764.07;1747979;82;20978;-43
2021/03/14 09:40:50;;;;;;;82.97;22.37;;;;;;;4.22;86.74;100763.77;1748045;82;20955;-42
2021/03/14 09:43:28;;;;;;;58.83;18.62;;;;;;;4.31;86.62;100752.78;1736540;82;21528;-42
2021/03/14 09:46:04;;;;;;;86.75;21.02;;;;;;;4.44;86.54;100762.75;1704103;83;21212;-42
2021/03/14 09:48:34;;;;;;;93.33;18.70;;;;;;;4.63;86.15;100761.66;1712492;83;21047;-48
2021/03/14 09:51:09;;;;;;;134.50;22.37;;;;;;;4.63;86.15;100761.66;1706748;83;20999;-44
2021/03/14 09:53:39;;;;;;;197.15;25.68;;;;;;;4.73;85.05;100771.19;1706719;83;21038;-42
2021/03/14 09:56:13;;;;;;;36.05;14.47;;;;;;;4.81;85.11;100770.00;1706784;84;21019;-42
2021/03/14 09:58:45;;;;;;;137.62;18.80;;;;;;;4.95;84.14;100762.44;1700317;84;21334;-42
2021/03/14 10:01:14;;;;;;;158.68;18.80;;;;;;;4.98;82.92;100766.31;1706181;83;21007;-43
2021/03/14 10:03:42;;;;;;;96.37;15.32;;;;;;;4.96;82.49;100755.18;1706259;84;20963;-43
2021/03/14 10:06:16;;;;;;;88.45;15.25;;;;;;;4.96;82.49;100755.18;1703499;84;20951;-42
2021/03/14 10:08:46;;;;;;;107.43;15.10;;;;;;;5.05;81.64;100748.84;1705245;84;21042;-41
2021/03/14 10:11:16;;;;;;;127.30;16.55;;;;;;;5.05;81.64;100748.84;1706171;84;21363;-43
2021/03/14 10:13:52;;;;;;;62.25;13.15;;;;;;;5.23;81.77;100753.27;1705430;84;20995;-42
2021/03/14 10:16:20;;;;;;;55.70;11.33;;;;;;;5.56;81.48;100749.26;1706195;83;20972;-43
2021/03/14 10:18:50;;;;;;;33.88;10.65;;;;;;;5.81;79.17;100742.13;1686592;84;21655;-44
2021/03/14 10:21:26;;;;;;;20.02;9.45;;;;;;;5.85;77.93;100738.71;1706250;84;21652;-41
2021/03/14 10:24:17;;;;;;;58.25;20.95;;;;;;;5.85;77.79;100736.14;1704984;84;22288;-43
2021/03/14 10:26:55;;;;;;;35.45;10.60;;;;;;;5.89;77.56;100736.59;1686196;84;21102;-43
2021/03/14 10:29:35;;;;;;;35.58;10.43;;;;;;;5.85;76.65;100732.29;1706172;82;20964;-42
2021/03/14 10:32:22;;;;;;;46.45;16.23;;;;;;;5.84;77.08;100728.87;1704348;84;20979;-43
2021/03/14 10:34:59;;;;;;;380.92;162.72;;;;;;;5.93;77.11;100715.19;1706250;84;21050;-42
2021/03/14 10:37:36;;;;;;;90.70;19.85;;;;;;;6.15;76.98;100711.47;1706163;84;21604;-43
2021/03/14 10:40:10;;;;;;;240.28;18.48;;;;;;;6.37;75.94;100712.84;1705543;82;20959;-41
2021/03/14 10:42:41;;;;;;;36.10;10.28;;;;;;;6.64;75.96;100715.92;1706199;82;21164;-42
2021/03/14 10:45:18;;;;;;;148.85;16.35;;;;;;;6.96;74.29;100706.53;1706244;84;20983;-42
2021/03/14 10:48:04;;;;;;;37.95;12.43;;;;;;;7.16;72.96;100687.22;1706180;83;20951;-43
2021/03/14 10:50:34;;;;;;;26.20;11.53;;;;;;;7.22;72.04;100690.22;1705951;84;21369;-42
2021/03/14 10:53:16;;;;;;;26.12;9.93;;;;;;;7.25;72.00;100679.47;1705270;83;21090;-42
2021/03/14 10:55:48;;;;;;;19.73;9.98;;;;;;;7.21;71.43;100688.52;1703789;84;20952;-42
2021/03/14 10:58:18;;;;;;;24.02;10.00;;;;;;;7.26;70.79;100686.34;1706118;84;21042;-43
2021/03/14 11:01:04;;;;;;;12.55;6.95;;;;;;;7.25;70.86;100685.91;1705811;83;20928;-42
2021/03/14 11:03:39;;;;;;;97.67;11.43;;;;;;;7.29;70.19;100681.17;1706211;84;22273;-42
2021/03/14 11:06:16;;;;;;;46.77;8.70;;;;;;;7.25;69.91;100685.06;1705476;84;21292;-44
2021/03/14 11:08:51;;;;;;;54.25;9.53;;;;;;;7.12;70.10;100683.77;1706332;84;20972;-42
2021/03/14 11:11:26;;;;;;;29.12;7.95;;;;;;;7.17;70.92;100684.63;1706128;83;20996;-42
2021/03/14 11:13:54;;;;;;;27.70;8.33;;;;;;;7.35;70.30;100672.59;1705939;84;20943;-44
2021/03/14 11:16:39;;;;;;;74.80;9.95;;;;;;;7.41;69.47;100673.02;1661575;85;21391;-42
2021/03/14 11:19:18;;;;;;;245.25;18.70;;;;;;;7.44;69.77;100666.12;1847693;76;23234;-42
2021/03/14 11:21:51;;;;;;;144.25;13.70;;;;;;;7.37;68.98;100664.88;1816538;79;20967;-42
2021/03/14 11:24:20;;;;;;;112.42;10.05;;;;;;;7.28;69.35;100659.31;1817689;79;21375;-42
2021/03/14 11:26:49;;;;;;;124.00;12.35;;;;;;;7.18;69.03;100659.30;1817706;79;21030;-43
2021/03/14 11:29:17;;;;;;;132.03;16.97;;;;;;;7.07;69.75;100664.91;1817737;79;20923;-43
2021/03/14 11:31:47;;;;;;;134.32;19.25;;;;;;;6.95;69.88;100669.62;1816582;79;20959;-43
2021/03/14 11:34:17;;;;;;;156.07;16.85;;;;;;;6.83;70.58;100670.92;1817796;79;20974;-43
2021/03/14 11:37:03;;;;;;;399.90;27.75;;;;;;;6.69;70.91;100657.61;1817764;79;21401;-42
2021/03/14 11:39:47;;;;;;;382.12;24.40;;;;;;;6.62;71.38;100661.04;1814883;79;20939;-43